createdAt,value
2023-05-04T00:00:37.000Z,0
2023-05-04T00:01:37.000Z,0
2023-05-04T00:02:38.000Z,0
2023-05-04T00:03:38.000Z,0
2023-05-04T00:04:39.000Z,0
2023-05-04T00:05:40.000Z,0
2023-05-04T00:06:40.000Z,0
2023-05-04T00:07:41.000Z,0
2023-05-04T00:08:42.000Z,0
2023-05-04T00:09:42.000Z,0
2023-05-04T00:10:43.000Z,0
2023-05-04T00:11:43.000Z,0
2023-05-04T00:12:44.000Z,0
2023-05-04T00:13:45.000Z,0
2023-05-04T00:14:45.000Z,0
2023-05-04T00:15:46.000Z,0
2023-05-04T00:16:47.000Z,0
2023-05-04T00:17:47.000Z,0
2023-05-04T00:18:48.000Z,0
2023-05-04T00:19:48.000Z,0
2023-05-04T00:20:49.000Z,0
2023-05-04T00:21:50.000Z,0
2023-05-04T00:22:50.000Z,0
2023-05-04T00:23:51.000Z,0
2023-05-04T00:24:52.000Z,0
2023-05-04T00:25:52.000Z,0
2023-05-04T00:26:53.000Z,0
2023-05-04T00:27:53.000Z,0
2023-05-04T00:28:54.000Z,0
2023-05-04T00:29:55.000Z,0
2023-05-04T00:30:55.000Z,0
2023-05-04T00:31:56.000Z,0
2023-05-04T00:32:57.000Z,0
2023-05-04T00:33:57.000Z,0
2023-05-04T00:34:58.000Z,0
2023-05-04T00:35:58.000Z,0
2023-05-04T00:36:59.000Z,0
2023-05-04T00:38:00.000Z,0
2023-05-04T00:39:00.000Z,0
2023-05-04T00:40:01.000Z,0
2023-05-04T00:41:02.000Z,0
2023-05-04T00:42:02.000Z,0
2023-05-04T00:43:03.000Z,0
2023-05-04T00:44:03.000Z,0
2023-05-04T00:45:04.000Z,0
2023-05-04T00:46:05.000Z,0
2023-05-04T00:47:05.000Z,0
2023-05-04T00:48:06.000Z,0
2023-05-04T00:49:07.000Z,0
2023-05-04T00:50:07.000Z,0
2023-05-04T00:51:08.000Z,0
2023-05-04T00:52:08.000Z,0
2023-05-04T00:53:09.000Z,0
2023-05-04T00:54:10.000Z,0
2023-05-04T00:55:10.000Z,0
2023-05-04T00:56:11.000Z,0
2023-05-04T00:57:12.000Z,0
2023-05-04T00:58:12.000Z,0
2023-05-04T00:59:13.000Z,0
2023-05-04T01:00:14.000Z,0
2023-05-04T01:01:14.000Z,0
2023-05-04T01:02:15.000Z,0
2023-05-04T01:03:15.000Z,0
2023-05-04T01:04:16.000Z,0
2023-05-04T01:05:17.000Z,0
2023-05-04T01:06:17.000Z,0
2023-05-04T01:07:18.000Z,0
2023-05-04T01:08:19.000Z,0
2023-05-04T01:09:19.000Z,0
2023-05-04T01:10:20.000Z,0
2023-05-04T01:11:20.000Z,0
2023-05-04T01:12:21.000Z,0
2023-05-04T01:13:22.000Z,0
2023-05-04T01:14:22.000Z,0
2023-05-04T01:15:23.000Z,0
2023-05-04T01:16:24.000Z,0
2023-05-04T01:17:24.000Z,0
2023-05-04T01:18:25.000Z,0
2023-05-04T01:19:25.000Z,0
2023-05-04T01:20:26.000Z,0
2023-05-04T01:21:27.000Z,0
2023-05-04T01:22:27.000Z,0
2023-05-04T01:23:28.000Z,0
2023-05-04T01:24:29.000Z,0
2023-05-04T01:25:29.000Z,0
2023-05-04T01:26:30.000Z,0
2023-05-04T01:27:30.000Z,0
2023-05-04T01:28:31.000Z,0
2023-05-04T01:29:32.000Z,0
2023-05-04T01:30:32.000Z,0
2023-05-04T01:31:33.000Z,0
2023-05-04T01:32:34.000Z,0
2023-05-04T01:33:34.000Z,0
2023-05-04T01:34:35.000Z,0
2023-05-04T01:35:35.000Z,0
2023-05-04T01:36:36.000Z,0
2023-05-04T01:37:37.000Z,0
2023-05-04T01:38:37.000Z,0
2023-05-04T01:39:38.000Z,0
2023-05-04T01:40:39.000Z,0
2023-05-04T01:41:39.000Z,0
2023-05-04T01:42:40.000Z,0
2023-05-04T01:43:41.000Z,0
2023-05-04T01:44:41.000Z,0
2023-05-04T01:45:42.000Z,0
2023-05-04T01:46:42.000Z,0
2023-05-04T01:47:43.000Z,0
2023-05-04T01:48:44.000Z,0
2023-05-04T01:49:44.000Z,0
2023-05-04T01:50:45.000Z,0
2023-05-04T01:51:46.000Z,0
2023-05-04T01:52:46.000Z,0
2023-05-04T01:53:47.000Z,0
2023-05-04T01:54:48.000Z,0
2023-05-04T01:55:48.000Z,0
2023-05-04T01:56:49.000Z,0
2023-05-04T01:57:50.000Z,0
2023-05-04T01:58:50.000Z,0
2023-05-04T01:59:51.000Z,0
2023-05-04T02:00:51.000Z,0
2023-05-04T02:01:52.000Z,0
2023-05-04T02:02:53.000Z,0
2023-05-04T02:03:53.000Z,0
2023-05-04T02:04:54.000Z,0
2023-05-04T02:05:55.000Z,0
2023-05-04T02:06:55.000Z,0
2023-05-04T02:07:56.000Z,0
2023-05-04T02:08:57.000Z,0
2023-05-04T02:09:57.000Z,0
2023-05-04T02:10:58.000Z,0
2023-05-04T02:11:58.000Z,0
2023-05-04T02:12:59.000Z,0
2023-05-04T02:14:00.000Z,0
2023-05-04T02:15:00.000Z,0
2023-05-04T02:16:01.000Z,0
2023-05-04T02:17:02.000Z,0
2023-05-04T02:18:02.000Z,0
2023-05-04T02:19:03.000Z,0
2023-05-04T02:20:03.000Z,0
2023-05-04T02:21:04.000Z,0
2023-05-04T02:22:05.000Z,0
2023-05-04T02:23:05.000Z,0
2023-05-04T02:24:06.000Z,0
2023-05-04T02:25:07.000Z,0
2023-05-04T02:26:07.000Z,0
2023-05-04T02:27:08.000Z,0
2023-05-04T02:28:08.000Z,0
2023-05-04T02:29:09.000Z,0
2023-05-04T02:30:10.000Z,0
2023-05-04T02:31:10.000Z,0
2023-05-04T02:32:11.000Z,0
2023-05-04T02:33:12.000Z,0
2023-05-04T02:34:12.000Z,0
2023-05-04T02:35:13.000Z,0
2023-05-04T02:36:13.000Z,0
2023-05-04T02:37:14.000Z,0
2023-05-04T02:38:15.000Z,0
2023-05-04T02:39:15.000Z,0
2023-05-04T02:40:16.000Z,0
2023-05-04T02:41:17.000Z,0
2023-05-04T02:42:17.000Z,0
2023-05-04T02:43:18.000Z,0
2023-05-04T02:44:18.000Z,0
2023-05-04T02:45:19.000Z,0
2023-05-04T02:46:20.000Z,0
2023-05-04T02:47:20.000Z,0
2023-05-04T02:48:21.000Z,1
2023-05-04T02:49:22.000Z,1
2023-05-04T02:50:22.000Z,0
2023-05-04T02:51:23.000Z,0
2023-05-04T02:52:23.000Z,1
2023-05-04T02:53:24.000Z,1
2023-05-04T02:54:25.000Z,0
2023-05-04T02:55:25.000Z,1
2023-05-04T02:56:26.000Z,2
2023-05-04T02:57:27.000Z,1
2023-05-04T02:58:27.000Z,1
2023-05-04T02:59:28.000Z,2
2023-05-04T03:00:28.000Z,3
2023-05-04T03:01:29.000Z,3
2023-05-04T03:02:30.000Z,3
2023-05-04T03:03:30.000Z,4
2023-05-04T03:04:31.000Z,4
2023-05-04T03:05:31.000Z,5
2023-05-04T03:06:32.000Z,6
2023-05-04T03:07:33.000Z,7
2023-05-04T03:08:33.000Z,8
2023-05-04T03:09:34.000Z,10
2023-05-04T03:10:35.000Z,10
2023-05-04T03:11:35.000Z,12
2023-05-04T03:12:36.000Z,14
2023-05-04T03:13:36.000Z,17
2023-05-04T03:14:37.000Z,20
2023-05-04T03:15:38.000Z,23
2023-05-04T03:16:38.000Z,27
2023-05-04T03:17:39.000Z,31
2023-05-04T03:18:40.000Z,36
2023-05-04T03:19:40.000Z,42
2023-05-04T03:20:41.000Z,49
2023-05-04T03:21:41.000Z,56
2023-05-04T03:22:42.000Z,65
2023-05-04T03:23:43.000Z,75
2023-05-04T03:24:43.000Z,86
2023-05-04T03:25:44.000Z,98
2023-05-04T03:26:45.000Z,113
2023-05-04T03:27:45.000Z,130
2023-05-04T03:28:46.000Z,148
2023-05-04T03:29:46.000Z,167
2023-05-04T03:30:47.000Z,190
2023-05-04T03:31:48.000Z,215
2023-05-04T03:32:48.000Z,242
2023-05-04T03:33:49.000Z,271
2023-05-04T03:34:50.000Z,302
2023-05-04T03:35:50.000Z,336
2023-05-04T03:36:51.000Z,371
2023-05-04T03:37:52.000Z,409
2023-05-04T03:38:52.000Z,448
2023-05-04T03:39:53.000Z,489
2023-05-04T03:40:53.000Z,532
2023-05-04T03:41:54.000Z,576
2023-05-04T03:42:55.000Z,622
2023-05-04T03:43:55.000Z,668
2023-05-04T03:44:56.000Z,717
2023-05-04T03:45:57.000Z,768
2023-05-04T03:46:57.000Z,823
2023-05-04T03:47:58.000Z,879
2023-05-04T03:48:58.000Z,937
2023-05-04T03:49:59.000Z,998
2023-05-04T03:51:00.000Z,1062
2023-05-04T03:52:00.000Z,1126
2023-05-04T03:53:01.000Z,1193
2023-05-04T03:54:02.000Z,1261
2023-05-04T03:55:02.000Z,1331
2023-05-04T03:56:03.000Z,1399
2023-05-04T03:57:03.000Z,1470
2023-05-04T03:58:04.000Z,1537
2023-05-04T03:59:05.000Z,1607
2023-05-04T04:00:05.000Z,1674
2023-05-04T04:01:06.000Z,1741
2023-05-04T04:02:07.000Z,1809
2023-05-04T04:03:07.000Z,1876
2023-05-04T04:04:08.000Z,1942
2023-05-04T04:05:09.000Z,2007
2023-05-04T04:06:09.000Z,2072
2023-05-04T04:07:10.000Z,2132
2023-05-04T04:08:10.000Z,2192
2023-05-04T04:09:11.000Z,2259
2023-05-04T04:10:12.000Z,2445
2023-05-04T04:11:12.000Z,2683
2023-05-04T04:12:13.000Z,2823
2023-05-04T04:13:14.000Z,2945
2023-05-04T04:14:14.000Z,3074
2023-05-04T04:15:15.000Z,3202
2023-05-04T04:16:15.000Z,3327
2023-05-04T04:17:16.000Z,3393
2023-05-04T04:18:17.000Z,3201
2023-05-04T04:19:17.000Z,3112
2023-05-04T04:20:18.000Z,3206
2023-05-04T04:21:19.000Z,3305
2023-05-04T04:22:19.000Z,3350
2023-05-04T04:23:20.000Z,3381
2023-05-04T04:24:20.000Z,3371
2023-05-04T04:25:21.000Z,3436
2023-05-04T04:26:22.000Z,3517
2023-05-04T04:27:22.000Z,3585
2023-05-04T04:28:23.000Z,3635
2023-05-04T04:29:24.000Z,3744
2023-05-04T04:30:24.000Z,3824
2023-05-04T04:31:25.000Z,3875
2023-05-04T04:32:25.000Z,3929
2023-05-04T04:33:26.000Z,3984
2023-05-04T04:34:27.000Z,3935
2023-05-04T04:35:27.000Z,4089
2023-05-04T04:36:28.000Z,4163
2023-05-04T04:37:29.000Z,4224
2023-05-04T04:38:29.000Z,4289
2023-05-04T04:39:30.000Z,4344
2023-05-04T04:40:30.000Z,4380
2023-05-04T04:41:31.000Z,4421
2023-05-04T04:42:32.000Z,4467
2023-05-04T04:43:32.000Z,4519
2023-05-04T04:44:33.000Z,4570
2023-05-04T04:45:34.000Z,4625
2023-05-04T04:46:34.000Z,4672
2023-05-04T04:47:35.000Z,4772
2023-05-04T04:48:36.000Z,4892
2023-05-04T04:49:36.000Z,4938
2023-05-04T04:50:37.000Z,4987
2023-05-04T04:51:37.000Z,5033
2023-05-04T04:52:38.000Z,5121
2023-05-04T04:53:39.000Z,5115
2023-05-04T04:54:39.000Z,5255
2023-05-04T04:55:40.000Z,5463
2023-05-04T04:56:40.000Z,5336
2023-05-04T04:57:41.000Z,5406
2023-05-04T04:58:42.000Z,5636
2023-05-04T04:59:42.000Z,5465
2023-05-04T05:00:43.000Z,5345
2023-05-04T05:01:44.000Z,5235
2023-05-04T05:02:44.000Z,5246
2023-05-04T05:03:45.000Z,5269
2023-05-04T05:04:45.000Z,5264
2023-05-04T05:05:46.000Z,5225
2023-05-04T05:06:47.000Z,5200
2023-05-04T05:07:47.000Z,5261
2023-05-04T05:08:48.000Z,5465
2023-05-04T05:09:49.000Z,5599
2023-05-04T05:10:49.000Z,5525
2023-05-04T05:11:50.000Z,5680
2023-05-04T05:12:51.000Z,5782
2023-05-04T05:13:51.000Z,5799
2023-05-04T05:14:52.000Z,5822
2023-05-04T05:15:52.000Z,5830
2023-05-04T05:16:53.000Z,5819
2023-05-04T05:17:54.000Z,5778
2023-05-04T05:18:54.000Z,5843
2023-05-04T05:19:55.000Z,5845
2023-05-04T05:20:56.000Z,5851
2023-05-04T05:21:56.000Z,5835
2023-05-04T05:22:57.000Z,5839
2023-05-04T05:23:57.000Z,5851
2023-05-04T05:24:58.000Z,5917
2023-05-04T05:25:59.000Z,5927
2023-05-04T05:26:59.000Z,5901
2023-05-04T05:28:00.000Z,5940
2023-05-04T05:29:01.000Z,6033
2023-05-04T05:30:01.000Z,6055
2023-05-04T05:31:02.000Z,6100
2023-05-04T05:32:03.000Z,6174
2023-05-04T05:33:03.000Z,6246
2023-05-04T05:34:04.000Z,6400
2023-05-04T05:35:04.000Z,6476
2023-05-04T05:36:05.000Z,6499
2023-05-04T05:37:06.000Z,6542
2023-05-04T05:38:06.000Z,6513
2023-05-04T05:39:07.000Z,6442
2023-05-04T05:40:08.000Z,6585
2023-05-04T05:41:08.000Z,6760
2023-05-04T05:42:09.000Z,6946
2023-05-04T05:43:09.000Z,7105
2023-05-04T05:44:10.000Z,7194
2023-05-04T05:45:11.000Z,7214
2023-05-04T05:46:11.000Z,7233
2023-05-04T05:47:12.000Z,7549
2023-05-04T05:48:13.000Z,7900
2023-05-04T05:49:13.000Z,8079
2023-05-04T05:50:14.000Z,7751
2023-05-04T05:51:15.000Z,7527
2023-05-04T05:52:15.000Z,7381
2023-05-04T05:53:16.000Z,7451
2023-05-04T05:54:16.000Z,7682
2023-05-04T05:55:17.000Z,7565
2023-05-04T05:56:18.000Z,7516
2023-05-04T05:57:18.000Z,7589
2023-05-04T05:58:19.000Z,7742
2023-05-04T05:59:20.000Z,7838
2023-05-04T06:00:20.000Z,7835
2023-05-04T06:01:21.000Z,7911
2023-05-04T06:02:22.000Z,7987
2023-05-04T06:03:22.000Z,8069
2023-05-04T06:04:23.000Z,8204
2023-05-04T06:05:23.000Z,8343
2023-05-04T06:06:24.000Z,8443
2023-05-04T06:07:25.000Z,8424
2023-05-04T06:08:25.000Z,8479
2023-05-04T06:09:26.000Z,8507
2023-05-04T06:10:27.000Z,9198
2023-05-04T06:11:27.000Z,9728
2023-05-04T06:12:28.000Z,8969
2023-05-04T06:13:28.000Z,8791
2023-05-04T06:14:29.000Z,8887
2023-05-04T06:15:30.000Z,9027
2023-05-04T06:16:30.000Z,9072
2023-05-04T06:17:31.000Z,9073
2023-05-04T06:18:32.000Z,9213
2023-05-04T06:19:32.000Z,9280
2023-05-04T06:20:33.000Z,9253
2023-05-04T06:21:33.000Z,9402
2023-05-04T06:22:34.000Z,9459
2023-05-04T06:23:35.000Z,9678
2023-05-04T06:24:35.000Z,9842
2023-05-04T06:25:36.000Z,10993
2023-05-04T06:26:37.000Z,11162
2023-05-04T06:27:37.000Z,11657
2023-05-04T06:28:38.000Z,10604
2023-05-04T06:29:38.000Z,10081
2023-05-04T06:30:39.000Z,10631
2023-05-04T06:31:40.000Z,13459
2023-05-04T06:32:40.000Z,16357
2023-05-04T06:33:41.000Z,16770
2023-05-04T06:34:41.000Z,15614
2023-05-04T06:35:42.000Z,10752
2023-05-04T06:36:43.000Z,11162
2023-05-04T06:37:43.000Z,10998
2023-05-04T06:38:44.000Z,11224
2023-05-04T06:39:45.000Z,11400
2023-05-04T06:40:45.000Z,11035
2023-05-04T06:41:46.000Z,10728
2023-05-04T06:42:46.000Z,10968
2023-05-04T06:43:47.000Z,11636
2023-05-04T06:44:48.000Z,13231
2023-05-04T06:45:48.000Z,13262
2023-05-04T06:46:49.000Z,11971
2023-05-04T06:47:50.000Z,11513
2023-05-04T06:48:50.000Z,11695
2023-05-04T06:49:51.000Z,12121
2023-05-04T06:50:52.000Z,13846
2023-05-04T06:51:52.000Z,14773
2023-05-04T06:52:53.000Z,16728
2023-05-04T06:53:53.000Z,17328
2023-05-04T06:54:54.000Z,15694
2023-05-04T06:55:55.000Z,13641
2023-05-04T06:56:55.000Z,15169
2023-05-04T06:57:56.000Z,15621
2023-05-04T06:58:57.000Z,14669
2023-05-04T06:59:57.000Z,15654
2023-05-04T07:00:58.000Z,13771
2023-05-04T07:01:58.000Z,14642
2023-05-04T07:02:59.000Z,13993
2023-05-04T07:04:00.000Z,13473
2023-05-04T07:05:00.000Z,13326
2023-05-04T07:06:01.000Z,14344
2023-05-04T07:07:01.000Z,18024
2023-05-04T07:08:02.000Z,17968
2023-05-04T07:09:03.000Z,13904
2023-05-04T07:10:03.000Z,13700
2023-05-04T07:11:04.000Z,13871
2023-05-04T07:12:05.000Z,14095
2023-05-04T07:13:05.000Z,14609
2023-05-04T07:14:06.000Z,14667
2023-05-04T07:15:06.000Z,14546
2023-05-04T07:16:07.000Z,15733
2023-05-04T07:17:08.000Z,15600
2023-05-04T07:18:08.000Z,14703
2023-05-04T07:19:09.000Z,15172
2023-05-04T07:20:10.000Z,14742
2023-05-04T07:21:10.000Z,14364
2023-05-04T07:22:11.000Z,14172
2023-05-04T07:23:11.000Z,13983
2023-05-04T07:24:12.000Z,13931
2023-05-04T07:25:13.000Z,14026
2023-05-04T07:26:13.000Z,14052
2023-05-04T07:27:14.000Z,14481
2023-05-04T07:28:15.000Z,16108
2023-05-04T07:29:15.000Z,15821
2023-05-04T07:30:16.000Z,14447
2023-05-04T07:31:17.000Z,14811
2023-05-04T07:32:17.000Z,15178
2023-05-04T07:33:18.000Z,15041
2023-05-04T07:34:18.000Z,15320
2023-05-04T07:35:19.000Z,15834
2023-05-04T07:36:20.000Z,15625
2023-05-04T07:37:20.000Z,15123
2023-05-04T07:38:21.000Z,15003
2023-05-04T07:39:22.000Z,14783
2023-05-04T07:40:22.000Z,15504
2023-05-04T07:41:23.000Z,15479
2023-05-04T07:42:23.000Z,15541
2023-05-04T07:43:24.000Z,15658
2023-05-04T07:44:25.000Z,15962
2023-05-04T07:45:25.000Z,16634
2023-05-04T07:46:26.000Z,17456
2023-05-04T07:47:27.000Z,15632
2023-05-04T07:48:27.000Z,15392
2023-05-04T07:49:28.000Z,15488
2023-05-04T07:50:29.000Z,15596
2023-05-04T07:51:29.000Z,15802
2023-05-04T07:52:30.000Z,16025
2023-05-04T07:53:30.000Z,15983
2023-05-04T07:54:31.000Z,16244
2023-05-04T07:55:32.000Z,15935
2023-05-04T07:56:32.000Z,16347
2023-05-04T07:57:33.000Z,16257
2023-05-04T07:58:34.000Z,17008
2023-05-04T07:59:34.000Z,16691
2023-05-04T08:00:35.000Z,16259
2023-05-04T08:01:35.000Z,16571
2023-05-04T08:02:36.000Z,19672
2023-05-04T08:03:37.000Z,27864
2023-05-04T08:04:37.000Z,23912
2023-05-04T08:05:38.000Z,18368
2023-05-04T08:06:39.000Z,19408
2023-05-04T08:07:39.000Z,20152
2023-05-04T08:08:40.000Z,22568
2023-05-04T08:09:40.000Z,29808
2023-05-04T08:10:41.000Z,36288
2023-05-04T08:11:42.000Z,43816
2023-05-04T08:12:42.000Z,47776
2023-05-04T08:13:43.000Z,43432
2023-05-04T08:14:43.000Z,46560
2023-05-04T08:15:44.000Z,44480
2023-05-04T08:16:45.000Z,50680
2023-05-04T08:17:45.000Z,52168
2023-05-04T08:18:46.000Z,59240
2023-05-04T08:19:47.000Z,65535
2023-05-04T08:20:47.000Z,65535
2023-05-04T08:21:48.000Z,65535
2023-05-04T08:22:48.000Z,65304
2023-05-04T08:23:49.000Z,65264
2023-05-04T08:24:50.000Z,65464
2023-05-04T08:25:50.000Z,64584
2023-05-04T08:26:51.000Z,63616
2023-05-04T08:27:52.000Z,60880
2023-05-04T08:28:52.000Z,58504
2023-05-04T08:29:53.000Z,56272
2023-05-04T08:30:54.000Z,54016
2023-05-04T08:31:54.000Z,53752
2023-05-04T08:32:55.000Z,57328
2023-05-04T08:33:55.000Z,57464
2023-05-04T08:34:56.000Z,53648
2023-05-04T08:35:57.000Z,54432
2023-05-04T08:36:57.000Z,57096
2023-05-04T08:37:58.000Z,57008
2023-05-04T08:38:59.000Z,57144
2023-05-04T08:39:59.000Z,59464
2023-05-04T08:41:00.000Z,60888
2023-05-04T08:42:00.000Z,55568
2023-05-04T08:43:01.000Z,56616
2023-05-04T08:44:02.000Z,58760
2023-05-04T08:45:02.000Z,59056
2023-05-04T08:46:03.000Z,60328
2023-05-04T08:47:04.000Z,61664
2023-05-04T08:48:04.000Z,55008
2023-05-04T08:49:05.000Z,56400
2023-05-04T08:50:06.000Z,56776
2023-05-04T08:51:06.000Z,53520
2023-05-04T08:52:07.000Z,54112
2023-05-04T08:53:07.000Z,55080
2023-05-04T08:54:08.000Z,58384
2023-05-04T08:55:09.000Z,61504
2023-05-04T08:56:09.000Z,58176
2023-05-04T08:57:10.000Z,53976
2023-05-04T08:58:11.000Z,55216
2023-05-04T08:59:11.000Z,51496
2023-05-04T09:00:12.000Z,55904
2023-05-04T09:01:13.000Z,50904
2023-05-04T09:02:13.000Z,57936
2023-05-04T09:03:14.000Z,56016
2023-05-04T09:04:14.000Z,54624
2023-05-04T09:05:15.000Z,54080
2023-05-04T09:06:16.000Z,54336
2023-05-04T09:07:16.000Z,55808
2023-05-04T09:08:17.000Z,55896
2023-05-04T09:09:18.000Z,54888
2023-05-04T09:10:18.000Z,52704
2023-05-04T09:11:19.000Z,51928
2023-05-04T09:12:24.000Z,52680
2023-05-04T09:13:25.000Z,55120
2023-05-04T09:14:26.000Z,56304
2023-05-04T09:15:26.000Z,59256
2023-05-04T09:16:27.000Z,62200
2023-05-04T09:17:28.000Z,65535
2023-05-04T09:18:28.000Z,65304
2023-05-04T09:19:29.000Z,64936
2023-05-04T09:20:29.000Z,65535
2023-05-04T09:21:30.000Z,65535
2023-05-04T09:22:31.000Z,65535
2023-05-04T09:23:31.000Z,65535
2023-05-04T09:24:32.000Z,64552
2023-05-04T09:25:33.000Z,65535
2023-05-04T09:26:33.000Z,58016
2023-05-04T09:27:34.000Z,62424
2023-05-04T09:28:34.000Z,65535
2023-05-04T09:29:35.000Z,65535
2023-05-04T09:30:36.000Z,65535
2023-05-04T09:31:36.000Z,65535
2023-05-04T09:32:37.000Z,64336
2023-05-04T09:33:38.000Z,65535
2023-05-04T09:34:38.000Z,65376
2023-05-04T09:35:39.000Z,64520
2023-05-04T09:36:39.000Z,65535
2023-05-04T09:37:40.000Z,63680
2023-05-04T09:38:41.000Z,65535
2023-05-04T09:39:41.000Z,65535
2023-05-04T09:40:42.000Z,64400
2023-05-04T09:41:43.000Z,65535
2023-05-04T09:42:43.000Z,65535
2023-05-04T09:43:44.000Z,65535
2023-05-04T09:44:44.000Z,65535
2023-05-04T09:45:45.000Z,65535
2023-05-04T09:46:46.000Z,65535
2023-05-04T09:47:46.000Z,65535
2023-05-04T09:48:47.000Z,65535
2023-05-04T09:49:48.000Z,65535
2023-05-04T09:50:48.000Z,65535
2023-05-04T09:51:49.000Z,65535
2023-05-04T09:52:49.000Z,65535
2023-05-04T09:53:50.000Z,65535
2023-05-04T09:54:51.000Z,65535
2023-05-04T09:55:51.000Z,65535
2023-05-04T09:56:52.000Z,65535
2023-05-04T09:57:53.000Z,65535
2023-05-04T09:58:53.000Z,65535
2023-05-04T09:59:54.000Z,65535
2023-05-04T10:00:54.000Z,65535
2023-05-04T10:01:55.000Z,65535
2023-05-04T10:02:56.000Z,65535
2023-05-04T10:03:56.000Z,65535
2023-05-04T10:04:57.000Z,65535
2023-05-04T10:05:58.000Z,65535
2023-05-04T10:06:58.000Z,65535
2023-05-04T10:07:59.000Z,65535
2023-05-04T10:08:59.000Z,65535
2023-05-04T10:10:00.000Z,65535
2023-05-04T10:11:01.000Z,65535
2023-05-04T10:12:01.000Z,65535
2023-05-04T10:13:02.000Z,65535
2023-05-04T10:14:03.000Z,65535
2023-05-04T10:15:03.000Z,65535
2023-05-04T10:16:04.000Z,65535
2023-05-04T10:17:05.000Z,65535
2023-05-04T10:18:05.000Z,65535
2023-05-04T10:19:06.000Z,65535
2023-05-04T10:20:06.000Z,65535
2023-05-04T10:21:07.000Z,65535
2023-05-04T10:22:08.000Z,65535
2023-05-04T10:23:08.000Z,65535
2023-05-04T10:24:09.000Z,65535
2023-05-04T10:25:10.000Z,65535
2023-05-04T10:26:10.000Z,65535
2023-05-04T10:27:11.000Z,65535
2023-05-04T10:28:11.000Z,65535
2023-05-04T10:29:12.000Z,65535
2023-05-04T10:30:13.000Z,65535
2023-05-04T10:31:13.000Z,65535
2023-05-04T10:32:14.000Z,65535
2023-05-04T10:33:15.000Z,65535
2023-05-04T10:34:15.000Z,65535
2023-05-04T10:35:16.000Z,65535
2023-05-04T10:36:16.000Z,65535
2023-05-04T10:37:17.000Z,65535
2023-05-04T10:38:18.000Z,65535
2023-05-04T10:39:18.000Z,65535
2023-05-04T10:40:19.000Z,65535
2023-05-04T10:41:20.000Z,65535
2023-05-04T10:42:20.000Z,65535
2023-05-04T10:43:21.000Z,65535
2023-05-04T10:44:22.000Z,65535
2023-05-04T10:45:22.000Z,65535
2023-05-04T10:46:23.000Z,65535
2023-05-04T10:47:24.000Z,65535
2023-05-04T10:48:24.000Z,65535
2023-05-04T10:49:25.000Z,65535
2023-05-04T10:50:25.000Z,65535
2023-05-04T10:51:26.000Z,65535
2023-05-04T10:52:27.000Z,65535
2023-05-04T10:53:27.000Z,65535
2023-05-04T10:54:28.000Z,65535
2023-05-04T10:55:29.000Z,65535
2023-05-04T10:56:29.000Z,65535
2023-05-04T10:57:30.000Z,65535
2023-05-04T10:58:31.000Z,65535
2023-05-04T10:59:31.000Z,65535
2023-05-04T11:00:32.000Z,65535
2023-05-04T11:01:32.000Z,65535
2023-05-04T11:02:33.000Z,65535
2023-05-04T11:03:34.000Z,65535
2023-05-04T11:04:34.000Z,65535
2023-05-04T11:05:35.000Z,65535
2023-05-04T11:06:36.000Z,65535
2023-05-04T11:07:36.000Z,65535
2023-05-04T11:08:37.000Z,65535
2023-05-04T11:09:37.000Z,65535
2023-05-04T11:10:38.000Z,65535
2023-05-04T11:11:39.000Z,65535
2023-05-04T11:12:39.000Z,65535
2023-05-04T11:13:40.000Z,65535
2023-05-04T11:14:41.000Z,65535
2023-05-04T11:15:41.000Z,65535
2023-05-04T11:16:42.000Z,65535
2023-05-04T11:17:43.000Z,65535
2023-05-04T11:18:43.000Z,65535
2023-05-04T11:19:44.000Z,65535
2023-05-04T11:20:44.000Z,65535
2023-05-04T11:21:45.000Z,65535
2023-05-04T11:22:46.000Z,65535
2023-05-04T11:23:46.000Z,65535
2023-05-04T11:24:47.000Z,65535
2023-05-04T11:25:47.000Z,65535
2023-05-04T11:26:48.000Z,65535
2023-05-04T11:27:49.000Z,65535
2023-05-04T11:28:49.000Z,65535
2023-05-04T11:29:50.000Z,65535
2023-05-04T11:30:51.000Z,65535
2023-05-04T11:31:51.000Z,65535
2023-05-04T11:32:52.000Z,65535
2023-05-04T11:33:53.000Z,65535
2023-05-04T11:34:53.000Z,65535
2023-05-04T11:35:54.000Z,65535
2023-05-04T11:36:54.000Z,65535
2023-05-04T11:37:55.000Z,65535
2023-05-04T11:38:56.000Z,65535
2023-05-04T11:39:56.000Z,65535
2023-05-04T11:40:57.000Z,65535
2023-05-04T11:41:58.000Z,65535
2023-05-04T11:42:58.000Z,65535
2023-05-04T11:43:59.000Z,65535
2023-05-04T11:45:00.000Z,65535
2023-05-04T11:46:00.000Z,65535
2023-05-04T11:47:01.000Z,65535
2023-05-04T11:48:01.000Z,65535
2023-05-04T11:49:02.000Z,65535
2023-05-04T11:50:03.000Z,65535
2023-05-04T11:51:03.000Z,65535
2023-05-04T11:52:04.000Z,65535
2023-05-04T11:53:04.000Z,65535
2023-05-04T11:54:05.000Z,65535
2023-05-04T11:55:06.000Z,65535
2023-05-04T11:56:06.000Z,65535
2023-05-04T11:57:07.000Z,65535
2023-05-04T11:58:08.000Z,65535
2023-05-04T11:59:08.000Z,65535
2023-05-04T12:00:09.000Z,65535
2023-05-04T12:01:09.000Z,65535
2023-05-04T12:02:10.000Z,65535
2023-05-04T12:03:11.000Z,65535
2023-05-04T12:04:11.000Z,65535
2023-05-04T12:05:12.000Z,65535
2023-05-04T12:06:13.000Z,65535
2023-05-04T12:07:13.000Z,65535
2023-05-04T12:08:14.000Z,65535
2023-05-04T12:09:14.000Z,65535
2023-05-04T12:10:15.000Z,65535
2023-05-04T12:11:16.000Z,65535
2023-05-04T12:12:16.000Z,65535
2023-05-04T12:13:17.000Z,65535
2023-05-04T12:14:17.000Z,65535
2023-05-04T12:15:18.000Z,65535
2023-05-04T12:16:19.000Z,64960
2023-05-04T12:17:19.000Z,64432
2023-05-04T12:18:20.000Z,63760
2023-05-04T12:19:21.000Z,61568
2023-05-04T12:20:21.000Z,59136
2023-05-04T12:21:22.000Z,56832
2023-05-04T12:22:22.000Z,53280
2023-05-04T12:23:23.000Z,53888
2023-05-04T12:24:24.000Z,53848
2023-05-04T12:25:24.000Z,53744
2023-05-04T12:26:25.000Z,54640
2023-05-04T12:27:26.000Z,53272
2023-05-04T12:28:26.000Z,51488
2023-05-04T12:29:27.000Z,50304
2023-05-04T12:30:27.000Z,49272
2023-05-04T12:31:28.000Z,49928
2023-05-04T12:32:29.000Z,49744
2023-05-04T12:33:29.000Z,49920
2023-05-04T12:34:30.000Z,52072
2023-05-04T12:35:31.000Z,56328
2023-05-04T12:36:31.000Z,60168
2023-05-04T12:37:32.000Z,59640
2023-05-04T12:38:32.000Z,61352
2023-05-04T12:39:33.000Z,61368
2023-05-04T12:40:34.000Z,58808
2023-05-04T12:41:34.000Z,59048
2023-05-04T12:42:35.000Z,58880
2023-05-04T12:43:36.000Z,60312
2023-05-04T12:44:36.000Z,59456
2023-05-04T12:45:37.000Z,57328
2023-05-04T12:46:37.000Z,56128
2023-05-04T12:47:38.000Z,55824
2023-05-04T12:48:39.000Z,56024
2023-05-04T12:49:39.000Z,54856
2023-05-04T12:50:40.000Z,55112
2023-05-04T12:51:41.000Z,55128
2023-05-04T12:52:41.000Z,55112
2023-05-04T12:53:42.000Z,57232
2023-05-04T12:54:42.000Z,57584
2023-05-04T12:55:43.000Z,59488
2023-05-04T12:56:44.000Z,60832
2023-05-04T12:57:44.000Z,63672
2023-05-04T12:58:45.000Z,65535
2023-05-04T12:59:46.000Z,65535
2023-05-04T13:00:46.000Z,65535
2023-05-04T13:01:47.000Z,65535
2023-05-04T13:02:47.000Z,65535
2023-05-04T13:03:48.000Z,65535
2023-05-04T13:04:49.000Z,65535
2023-05-04T13:05:49.000Z,65535
2023-05-04T13:06:50.000Z,65535
2023-05-04T13:07:51.000Z,64720
2023-05-04T13:08:51.000Z,64768
2023-05-04T13:09:52.000Z,64616
2023-05-04T13:10:53.000Z,64240
2023-05-04T13:11:53.000Z,63368
2023-05-04T13:12:54.000Z,60192
2023-05-04T13:13:54.000Z,57568
2023-05-04T13:14:55.000Z,58496
2023-05-04T13:15:56.000Z,56648
2023-05-04T13:16:56.000Z,59472
2023-05-04T13:17:57.000Z,59496
2023-05-04T13:18:58.000Z,59584
2023-05-04T13:19:58.000Z,57904
2023-05-04T13:20:59.000Z,58808
2023-05-04T13:21:59.000Z,56656
2023-05-04T13:23:00.000Z,49952
2023-05-04T13:24:01.000Z,54336
2023-05-04T13:25:01.000Z,51664
2023-05-04T13:26:02.000Z,51736
2023-05-04T13:27:02.000Z,49880
2023-05-04T13:28:03.000Z,52128
2023-05-04T13:29:04.000Z,50432
2023-05-04T13:30:04.000Z,50760
2023-05-04T13:31:05.000Z,49240
2023-05-04T13:32:06.000Z,47080
2023-05-04T13:33:06.000Z,44936